Time;durP1;ratioP1;P1;durP2;ratioP2;P2;SDS_P1;SDS_P2;PMS_P1;PMS_P2;Temp;Humidity;BMP_temperature;BMP_pressure;BME280_temperature;BME280_humidity;BME280_pressure;Samples;Min_cycle;Max_cycle;Signal;HPM_P1;HPM_P2
2022/10/20 00:01:21;;;;;;;18.25;6.65;;;7.70;99.90;;;;;;5073596;28;20045;-76
2022/10/20 00:03:48;;;;;;;10.82;5.88;;;7.70;99.90;;;;;;5073531;28;20036;-76
2022/10/20 00:06:17;;;;;;;12.85;5.78;;;7.70;99.90;;;;;;5055197;28;20048;-76
2022/10/20 00:08:44;;;;;;;17.10;6.40;;;7.70;99.90;;;;;;5073182;28;20036;-80
2022/10/20 00:11:12;;;;;;;16.58;6.63;;;7.70;99.90;;;;;;5044332;28;20044;-81
2022/10/20 00:13:39;;;;;;;12.50;6.20;;;7.70;99.90;;;;;;5037606;28;20040;-78
2022/10/20 00:16:05;;;;;;;13.50;5.95;;;7.60;99.90;;;;;;5028568;28;20121;-78
2022/10/20 00:18:32;;;;;;;12.02;6.20;;;7.70;99.90;;;;;;5044750;28;20087;-79
2022/10/20 00:20:57;;;;;;;13.88;6.25;;;7.60;99.90;;;;;;5054650;28;20037;-80
2022/10/20 00:23:23;;;;;;;18.63;6.60;;;7.70;99.90;;;;;;5067846;28;20064;-78
2022/10/20 00:26:00;;;;;;;19.40;6.70;;;7.60;99.90;;;;;;5072297;28;20345;-79
2022/10/20 00:28:27;;;;;;;15.48;6.50;;;7.70;99.90;;;;;;5071142;28;20045;-77
2022/10/20 00:30:56;;;;;;;14.15;6.40;;;7.60;99.90;;;;;;5056853;28;20158;-81
2022/10/20 00:33:23;;;;;;;13.02;6.18;;;7.50;99.90;;;;;;5072970;28;20048;-82
2022/10/20 00:35:48;;;;;;;12.63;6.13;;;7.50;99.90;;;;;;5055627;28;20402;-77
2022/10/20 00:38:14;;;;;;;19.45;5.88;;;7.50;99.90;;;;;;5036590;28;20044;-78
2022/10/20 00:40:40;;;;;;;19.90;6.30;;;7.50;99.90;;;;;;5050232;28;20040;-77
2022/10/20 00:43:11;;;;;;;16.70;6.32;;;7.50;99.90;;;;;;5055961;28;20123;-81
2022/10/20 00:45:36;;;;;;;11.27;6.15;;;7.40;99.90;;;;;;5061715;28;20112;-77
2022/10/20 00:48:24;;;;;;;11.38;5.72;;;7.40;99.90;;;;;;5071013;28;20101;-80
2022/10/20 00:50:53;;;;;;;12.02;6.22;;;7.40;99.90;;;;;;5059989;28;20052;-76
2022/10/20 00:53:27;;;;;;;12.60;5.60;;;7.40;99.90;;;;;;5075789;28;20127;-78
2022/10/20 00:55:55;;;;;;;12.40;6.30;;;7.30;99.90;;;;;;5058477;28;20048;-79
2022/10/20 00:58:21;;;;;;;13.73;5.97;;;7.30;99.90;;;;;;5038758;28;20044;-77
2022/10/20 01:00:52;;;;;;;14.65;6.05;;;7.30;99.90;;;;;;5040914;28;20069;-77
2022/10/20 01:03:23;;;;;;;13.50;5.97;;;7.30;99.90;;;;;;5089707;28;20036;-79
2022/10/20 01:05:49;;;;;;;13.68;5.82;;;7.30;99.90;;;;;;5074712;28;20068;-79
2022/10/20 01:08:14;;;;;;;12.77;5.35;;;7.30;99.90;;;;;;5058206;28;20083;-79
2022/10/20 01:11:02;;;;;;;14.75;6.20;;;7.30;99.90;;;;;;5058570;28;20088;-80
2022/10/20 01:13:32;;;;;;;10.27;5.65;;;7.20;99.90;;;;;;5047036;28;20044;-79
2022/10/20 01:16:11;;;;;;;11.48;5.38;;;7.30;99.90;;;;;;5059405;28;20055;-79
2022/10/20 01:18:57;;;;;;;13.05;6.00;;;7.30;99.90;;;;;;5071703;28;20040;-81
2022/10/20 01:21:52;;;;;;;12.80;6.13;;;7.30;99.90;;;;;;5059178;28;20040;-76
2022/10/20 01:24:57;;;;;;;16.27;6.03;;;7.30;99.90;;;;;;5057522;28;20055;-79
2022/10/20 01:27:36;;;;;;;17.70;6.13;;;7.20;99.90;;;;;;5073296;28;20039;-77
2022/10/20 01:30:06;;;;;;;11.80;6.07;;;7.00;99.90;;;;;;5036303;28;20043;-78
2022/10/20 01:32:52;;;;;;;8.95;5.57;;;7.10;99.90;;;;;;5055601;28;20045;-78
2022/10/20 01:35:32;;;;;;;13.63;5.65;;;7.10;99.90;;;;;;5038928;28;20068;-78
2022/10/20 01:38:24;;;;;;;15.77;6.18;;;7.20;99.90;;;;;;5068889;28;20050;-80
2022/10/20 01:40:56;;;;;;;14.13;5.95;;;7.20;99.90;;;;;;5072465;28;20050;-80
2022/10/20 01:43:25;;;;;;;17.88;5.60;;;7.10;99.90;;;;;;5063817;28;20519;-76
2022/10/20 01:45:53;;;;;;;12.52;6.22;;;7.10;99.90;;;;;;5076588;28;20043;-76
2022/10/20 01:48:24;;;;;;;13.52;6.47;;;7.10;99.90;;;;;;5064028;28;20122;-80
2022/10/20 01:50:50;;;;;;;20.23;6.35;;;7.10;99.90;;;;;;5077316;28;20060;-77
2022/10/20 01:53:16;;;;;;;13.35;6.15;;;7.00;99.90;;;;;;5069061;28;20048;-78
2022/10/20 01:55:42;;;;;;;12.23;5.85;;;7.00;99.90;;;;;;5056701;28;20059;-78
2022/10/20 01:58:32;;;;;;;17.85;6.13;;;7.00;99.90;;;;;;5073970;28;20043;-79
2022/10/20 02:01:36;;;;;;;12.55;6.32;;;7.00;99.90;;;;;;5058076;28;20059;-77
2022/10/20 02:04:04;;;;;;;17.45;6.80;;;7.00;99.90;;;;;;5043063;28;20063;-78
2022/10/20 02:06:33;;;;;;;12.40;6.05;;;6.90;99.90;;;;;;5057943;28;20126;-78
2022/10/20 02:09:05;;;;;;;15.63;6.22;;;6.90;99.90;;;;;;5073679;28;20111;-78
2022/10/20 02:11:49;;;;;;;11.35;6.30;;;6.90;99.90;;;;;;5092142;28;20047;-75
2022/10/20 02:14:19;;;;;;;17.42;6.85;;;6.90;99.90;;;;;;5060608;28;20123;-77
2022/10/20 02:16:56;;;;;;;15.40;6.47;;;7.10;99.90;;;;;;5070891;28;20036;-79
2022/10/20 02:19:25;;;;;;;15.90;6.78;;;6.90;99.90;;;;;;5076211;28;20147;-80
2022/10/20 02:21:53;;;;;;;18.02;6.85;;;6.90;99.90;;;;;;5057661;28;20379;-75
2022/10/20 02:24:23;;;;;;;12.82;7.03;;;6.90;99.90;;;;;;5048230;28;20040;-79
2022/10/20 02:26:51;;;;;;;11.82;6.28;;;6.90;99.90;;;;;;5087193;28;20054;-81
2022/10/20 02:29:23;;;;;;;9.77;6.93;;;6.80;99.90;;;;;;5060832;28;20040;-77
2022/10/20 02:31:49;;;;;;;14.98;6.53;;;6.80;99.90;;;;;;5073098;28;20044;-80
2022/10/20 02:34:15;;;;;;;15.48;6.93;;;6.80;99.90;;;;;;5072395;28;20069;-76
2022/10/20 02:36:42;;;;;;;13.85;7.13;;;6.70;99.90;;;;;;5074608;28;20089;-78
2022/10/20 02:39:10;;;;;;;11.63;7.05;;;6.70;99.90;;;;;;5031612;28;20040;-78
2022/10/20 02:41:36;;;;;;;14.23;6.50;;;6.60;99.90;;;;;;5038451;28;20040;-82
2022/10/20 02:44:02;;;;;;;14.10;6.93;;;6.70;99.90;;;;;;5057313;28;20036;-80
2022/10/20 02:46:28;;;;;;;11.73;7.00;;;6.70;99.90;;;;;;5092356;28;20450;-81
2022/10/20 02:48:53;;;;;;;12.98;6.80;;;6.70;99.90;;;;;;5072463;28;20131;-79
2022/10/20 02:51:19;;;;;;;13.75;6.93;;;6.70;99.90;;;;;;5067496;28;20098;-79
2022/10/20 02:53:45;;;;;;;15.43;7.22;;;6.70;99.90;;;;;;5052495;28;20056;-80
2022/10/20 02:56:11;;;;;;;14.00;7.22;;;6.70;99.90;;;;;;5064634;28;20039;-77
2022/10/20 02:58:37;;;;;;;13.15;7.53;;;6.60;99.90;;;;;;5075848;28;20046;-78
2022/10/20 03:01:03;;;;;;;16.15;6.97;;;6.70;99.90;;;;;;5073813;28;20426;-81
2022/10/20 03:03:29;;;;;;;11.57;6.55;;;6.60;99.90;;;;;;5073834;28;20174;-80
2022/10/20 03:05:55;;;;;;;13.40;6.70;;;6.60;99.90;;;;;;5071040;28;20040;-82
2022/10/20 03:08:21;;;;;;;12.60;7.00;;;6.50;99.90;;;;;;5073164;28;20043;-81
2022/10/20 03:10:46;;;;;;;14.25;7.13;;;6.60;99.90;;;;;;5057478;28;20040;-78
2022/10/20 03:13:14;;;;;;;14.40;7.28;;;6.60;99.90;;;;;;5047817;28;20139;-76
2022/10/20 03:15:40;;;;;;;12.52;7.15;;;6.50;99.90;;;;;;5037906;28;20127;-77
2022/10/20 03:18:05;;;;;;;15.77;7.57;;;6.50;99.90;;;;;;5056269;28;20076;-78
2022/10/20 03:20:32;;;;;;;15.38;7.85;;;6.50;99.90;;;;;;5056136;28;20044;-77
2022/10/20 03:22:57;;;;;;;12.20;7.07;;;6.50;99.90;;;;;;5077491;28;20036;-77
2022/10/20 03:25:23;;;;;;;14.75;7.90;;;6.50;99.90;;;;;;5073366;28;20449;-76
2022/10/20 03:27:48;;;;;;;16.65;8.07;;;6.40;99.90;;;;;;5068581;28;20037;-76
2022/10/20 03:30:14;;;;;;;11.60;7.07;;;6.50;99.90;;;;;;5087335;28;20376;-77
2022/10/20 03:32:40;;;;;;;11.77;7.63;;;6.50;99.90;;;;;;5084995;28;20100;-80
2022/10/20 03:35:06;;;;;;;15.45;8.02;;;6.50;99.90;;;;;;5091495;28;20032;-77
2022/10/20 03:37:31;;;;;;;14.52;7.97;;;6.50;99.90;;;;;;5052855;28;20119;-77
2022/10/20 03:39:57;;;;;;;18.35;8.70;;;6.40;99.90;;;;;;5086856;28;20123;-77
2022/10/20 03:42:23;;;;;;;18.65;8.85;;;6.40;99.90;;;;;;5054156;28;20047;-81
2022/10/20 03:44:48;;;;;;;16.98;7.78;;;6.50;99.90;;;;;;5056241;28;20052;-80
2022/10/20 03:47:14;;;;;;;17.50;8.63;;;6.50;99.90;;;;;;5072593;28;20032;-80
2022/10/20 03:49:40;;;;;;;12.88;8.35;;;6.50;99.90;;;;;;5042365;28;20044;-76
2022/10/20 03:52:07;;;;;;;23.48;9.25;;;6.40;99.90;;;;;;5050164;28;20043;-78
2022/10/20 03:54:34;;;;;;;17.85;9.10;;;6.40;99.90;;;;;;5074264;28;20040;-80
2022/10/20 03:57:00;;;;;;;12.80;8.88;;;6.50;99.90;;;;;;5063556;28;20032;-77
2022/10/20 03:59:26;;;;;;;15.93;9.63;;;6.40;99.90;;;;;;5056656;28;20040;-79
2022/10/20 04:01:53;;;;;;;21.95;8.95;;;6.40;99.90;;;;;;5071558;28;20052;-78
2022/10/20 04:04:18;;;;;;;13.30;8.32;;;6.30;99.90;;;;;;5080725;28;20147;-79
2022/10/20 04:06:44;;;;;;;19.73;9.95;;;6.40;99.90;;;;;;5065022;28;20047;-80
2022/10/20 04:09:10;;;;;;;14.27;9.88;;;6.40;99.90;;;;;;5076754;28;20036;-81
2022/10/20 04:11:35;;;;;;;16.60;9.15;;;6.40;99.90;;;;;;5045694;28;20093;-79
2022/10/20 04:14:01;;;;;;;16.42;9.70;;;6.40;99.90;;;;;;5059017;28;20036;-77
2022/10/20 04:16:27;;;;;;;18.38;9.73;;;6.40;99.90;;;;;;5057026;28;20376;-79
2022/10/20 04:18:54;;;;;;;15.35;10.20;;;6.50;99.90;;;;;;5087306;28;20043;-81
2022/10/20 04:21:20;;;;;;;16.30;10.00;;;6.40;99.90;;;;;;5077085;28;20097;-75
2022/10/20 04:23:46;;;;;;;14.43;9.60;;;6.40;99.90;;;;;;5071764;28;20115;-79
2022/10/20 04:26:14;;;;;;;19.85;10.25;;;6.40;99.90;;;;;;5041672;28;20452;-82
2022/10/20 04:28:39;;;;;;;17.20;10.38;;;6.40;99.90;;;;;;5055016;28;20045;-75
2022/10/20 04:31:06;;;;;;;14.80;9.57;;;6.40;99.90;;;;;;5044294;28;20067;-75
2022/10/20 04:33:32;;;;;;;16.25;10.45;;;6.40;99.90;;;;;;5074028;28;20117;-82
2022/10/20 04:36:03;;;;;;;14.82;10.07;;;6.40;99.90;;;;;;5056919;28;20094;-77
2022/10/20 04:38:30;;;;;;;23.77;10.80;;;6.30;99.90;;;;;;5045669;28;20040;-80
2022/10/20 04:40:57;;;;;;;24.10;10.30;;;6.40;99.90;;;;;;5056497;28;20036;-77
2022/10/20 04:43:23;;;;;;;18.88;11.07;;;6.40;99.90;;;;;;5067059;28;20484;-76
2022/10/20 04:45:48;;;;;;;16.83;11.00;;;6.30;99.90;;;;;;5077235;28;20032;-79
2022/10/20 04:48:15;;;;;;;13.50;10.43;;;6.30;99.90;;;;;;5078218;28;20035;-79
2022/10/20 04:50:40;;;;;;;24.75;10.57;;;6.30;99.90;;;;;;5079717;28;20048;-77
2022/10/20 04:53:07;;;;;;;17.75;11.07;;;6.30;99.90;;;;;;5060961;28;20029;-79
2022/10/20 04:55:33;;;;;;;20.60;11.20;;;6.30;99.90;;;;;;5044618;28;20032;-78
2022/10/20 04:57:59;;;;;;;18.23;11.80;;;6.30;99.90;;;;;;5067505;28;20040;-78
2022/10/20 05:00:25;;;;;;;20.52;11.57;;;6.20;99.90;;;;;;5076942;28;20167;-79
2022/10/20 05:02:50;;;;;;;18.02;11.85;;;6.20;99.90;;;;;;5059493;28;20506;-79
2022/10/20 05:05:16;;;;;;;20.75;11.80;;;6.20;99.90;;;;;;5046491;28;20047;-77
2022/10/20 05:07:42;;;;;;;16.65;11.90;;;6.20;99.90;;;;;;5054824;28;20724;-76
2022/10/20 05:10:09;;;;;;;20.67;12.45;;;6.20;99.90;;;;;;5056103;28;20097;-78
2022/10/20 05:12:35;;;;;;;24.48;12.30;;;6.20;99.90;;;;;;5055641;28;20044;-80
2022/10/20 05:15:00;;;;;;;16.80;12.07;;;6.10;99.90;;;;;;5058493;28;20059;-79
2022/10/20 05:17:28;;;;;;;20.15;12.05;;;6.10;99.90;;;;;;5075618;28;20048;-81
2022/10/20 05:19:54;;;;;;;16.42;11.95;;;6.10;99.90;;;;;;5076214;28;20043;-78
2022/10/20 05:22:20;;;;;;;20.20;13.13;;;6.20;99.90;;;;;;5054570;28;20487;-77
2022/10/20 05:24:45;;;;;;;21.27;12.40;;;6.10;99.90;;;;;;5055009;28;20036;-78
2022/10/20 05:27:11;;;;;;;18.67;12.88;;;6.20;99.90;;;;;;5057585;28;20040;-79
2022/10/20 05:29:37;;;;;;;18.63;13.02;;;6.10;99.90;;;;;;5058915;28;20048;-79
2022/10/20 05:32:02;;;;;;;18.35;11.93;;;6.20;99.90;;;;;;5054192;28;20040;-77
2022/10/20 05:34:28;;;;;;;18.63;13.05;;;6.10;99.90;;;;;;5069517;28;20454;-78
2022/10/20 05:36:54;;;;;;;18.33;12.13;;;6.10;99.90;;;;;;5055596;28;20046;-78
2022/10/20 05:39:19;;;;;;;27.77;13.50;;;6.10;99.90;;;;;;5047534;28;20044;-77
2022/10/20 05:41:45;;;;;;;19.52;12.73;;;6.20;99.90;;;;;;5038351;28;20040;-78
2022/10/20 05:44:11;;;;;;;19.95;12.57;;;6.10;99.90;;;;;;5063452;28;20332;-78
2022/10/20 05:46:41;;;;;;;21.65;13.52;;;6.20;99.90;;;;;;5058085;28;20036;-79
2022/10/20 05:49:12;;;;;;;22.50;14.23;;;6.20;99.90;;;;;;5058229;28;20059;-76
2022/10/20 05:51:39;;;;;;;19.55;13.88;;;6.10;99.90;;;;;;5075019;28;20373;-77
2022/10/20 05:54:04;;;;;;;21.67;14.52;;;6.00;99.90;;;;;;5070939;28;20124;-78
2022/10/20 05:56:32;;;;;;;19.92;14.77;;;6.00;99.90;;;;;;5058460;28;20185;-76
2022/10/20 05:58:58;;;;;;;21.52;13.90;;;6.00;99.90;;;;;;5043090;28;20050;-79
2022/10/20 06:01:26;;;;;;;19.70;13.48;;;6.00;99.90;;;;;;5085387;28;20055;-78
2022/10/20 06:03:54;;;;;;;26.02;14.73;;;6.00;99.90;;;;;;5073820;28;20055;-80
2022/10/20 06:06:25;;;;;;;19.63;13.95;;;6.00;99.90;;;;;;5059369;28;20081;-78
2022/10/20 06:08:51;;;;;;;20.25;13.98;;;6.10;99.90;;;;;;5052721;28;20028;-80
2022/10/20 06:11:21;;;;;;;23.95;15.25;;;6.10;99.90;;;;;;5046221;28;20509;-78
2022/10/20 06:13:47;;;;;;;18.58;13.50;;;6.10;99.90;;;;;;5073645;28;20040;-76
2022/10/20 06:16:18;;;;;;;25.70;14.45;;;6.10;99.90;;;;;;5058199;28;20044;-79
2022/10/20 06:18:43;;;;;;;20.30;14.77;;;6.00;99.90;;;;;;5060642;28;20458;-77
2022/10/20 06:21:11;;;;;;;26.65;15.18;;;6.10;99.90;;;;;;5078467;28;20071;-79
2022/10/20 06:23:37;;;;;;;22.30;14.88;;;6.10;99.90;;;;;;5037527;28;20043;-78
2022/10/20 06:26:05;;;;;;;22.50;15.23;;;6.10;99.90;;;;;;5055147;28;20032;-77
2022/10/20 06:28:32;;;;;;;21.40;15.02;;;6.20;99.90;;;;;;5040809;28;20089;-81
2022/10/20 06:30:59;;;;;;;24.85;14.20;;;6.20;99.90;;;;;;5071213;28;20048;-80
2022/10/20 06:33:27;;;;;;;27.48;14.65;;;6.20;99.90;;;;;;5040301;28;20072;-78
2022/10/20 06:35:59;;;;;;;22.05;14.88;;;6.20;99.90;;;;;;5054117;28;20051;-78
2022/10/20 06:38:25;;;;;;;27.02;14.77;;;6.20;99.90;;;;;;5059140;28;20541;-79
2022/10/20 06:40:50;;;;;;;22.65;15.13;;;6.20;99.90;;;;;;5074107;28;20048;-81
2022/10/20 06:43:16;;;;;;;20.42;15.23;;;6.10;99.90;;;;;;5057032;28;20036;-77
2022/10/20 06:45:41;;;;;;;22.85;13.95;;;6.20;99.90;;;;;;5056370;28;20052;-76
2022/10/20 06:48:07;;;;;;;19.15;14.15;;;6.20;99.90;;;;;;5059622;28;20112;-79
2022/10/20 06:50:33;;;;;;;24.33;15.27;;;6.20;99.90;;;;;;5048371;28;20367;-79
2022/10/20 06:52:59;;;;;;;23.67;14.75;;;6.30;99.90;;;;;;5077969;28;20371;-79
2022/10/20 06:55:28;;;;;;;24.05;14.63;;;6.30;99.90;;;;;;5076494;28;20100;-79
2022/10/20 06:57:53;;;;;;;22.75;14.43;;;6.30;99.90;;;;;;5056934;28;20055;-80
2022/10/20 07:00:19;;;;;;;19.88;14.00;;;6.30;99.90;;;;;;5072218;28;20044;-80
2022/10/20 07:02:45;;;;;;;25.98;15.00;;;6.40;99.90;;;;;;5071640;28;20376;-79
2022/10/20 07:05:10;;;;;;;22.33;15.10;;;6.40;99.90;;;;;;5053613;28;20121;-79
2022/10/20 07:07:36;;;;;;;19.90;13.88;;;6.40;99.90;;;;;;5065603;28;20036;-81
2022/10/20 07:10:01;;;;;;;25.90;14.65;;;6.40;99.90;;;;;;5054136;28;20404;-79
2022/10/20 07:12:27;;;;;;;19.30;14.15;;;6.50;99.90;;;;;;5053107;28;20063;-78
2022/10/20 07:14:53;;;;;;;21.20;13.75;;;6.50;99.90;;;;;;5039862;28;20036;-77
2022/10/20 07:17:18;;;;;;;22.60;14.00;;;6.60;99.90;;;;;;5073682;28;20113;-76
2022/10/20 07:19:44;;;;;;;16.98;13.38;;;6.70;99.90;;;;;;5054029;28;20048;-79
2022/10/20 07:22:09;;;;;;;18.30;13.32;;;6.70;99.90;;;;;;5070949;28;20044;-79
2022/10/20 07:24:35;;;;;;;20.88;13.75;;;6.70;99.90;;;;;;5057000;28;20036;-78
2022/10/20 07:27:02;;;;;;;18.23;12.90;;;6.70;99.90;;;;;;5049261;28;20400;-81
2022/10/20 07:29:28;;;;;;;19.30;13.80;;;6.70;99.90;;;;;;5041679;28;20047;-80
2022/10/20 07:31:53;;;;;;;18.42;12.57;;;6.80;99.90;;;;;;5056597;28;20122;-80
2022/10/20 07:34:22;;;;;;;16.58;13.35;;;6.80;99.90;;;;;;5056840;28;20510;-81
2022/10/20 07:36:48;;;;;;;18.00;12.73;;;6.80;99.90;;;;;;5070718;28;20152;-77
2022/10/20 07:39:15;;;;;;;21.63;12.82;;;6.90;99.90;;;;;;5073212;28;20097;-79
2022/10/20 07:41:44;;;;;;;20.70;14.10;;;6.90;99.90;;;;;;5077721;28;20032;-81
2022/10/20 07:44:10;;;;;;;21.23;13.50;;;7.00;99.90;;;;;;5060226;28;20080;-78
2022/10/20 07:46:35;;;;;;;18.25;13.68;;;6.90;99.90;;;;;;5050314;28;20313;-77
2022/10/20 07:49:01;;;;;;;22.05;14.13;;;7.00;99.90;;;;;;5072871;28;20056;-79
2022/10/20 07:51:29;;;;;;;20.77;13.40;;;7.10;99.90;;;;;;5079129;28;20052;-77
2022/10/20 07:54:05;;;;;;;28.13;13.65;;;7.10;99.90;;;;;;5061158;28;20451;-78
2022/10/20 07:56:37;;;;;;;23.60;14.20;;;7.00;99.90;;;;;;5060012;28;20089;-79
2022/10/20 07:59:04;;;;;;;19.75;12.57;;;7.10;99.90;;;;;;5080037;28;20368;-77
2022/10/20 08:01:30;;;;;;;19.95;12.95;;;7.20;99.90;;;;;;5077167;28;20040;-76
2022/10/20 08:03:56;;;;;;;19.92;12.45;;;7.30;99.90;;;;;;5076876;28;20091;-79
2022/10/20 08:06:22;;;;;;;19.75;12.93;;;7.30;99.90;;;;;;5060490;28;20088;-81
2022/10/20 08:08:48;;;;;;;25.23;12.88;;;7.20;99.90;;;;;;5075558;28;20119;-79
2022/10/20 08:11:14;;;;;;;15.88;12.63;;;7.40;99.90;;;;;;5042624;28;20080;-81
2022/10/20 08:13:41;;;;;;;24.55;13.30;;;7.40;99.90;;;;;;5053943;28;20036;-79
2022/10/20 08:16:09;;;;;;;17.33;13.05;;;7.50;99.90;;;;;;5060350;28;20072;-79
2022/10/20 08:18:35;;;;;;;22.73;13.50;;;7.50;99.90;;;;;;5059941;28;20395;-76
2022/10/20 08:21:16;;;;;;;27.27;12.88;;;7.60;99.90;;;;;;5080509;28;20051;-79
2022/10/20 08:23:44;;;;;;;18.08;12.80;;;7.70;99.90;;;;;;5039319;28;20550;-82
2022/10/20 08:26:11;;;;;;;18.38;12.15;;;7.70;99.90;;;;;;5040070;28;20049;-76
2022/10/20 08:28:37;;;;;;;20.10;12.52;;;7.80;99.90;;;;;;5041101;28;20036;-78
2022/10/20 08:31:05;;;;;;;18.48;11.85;;;7.80;99.90;;;;;;5048588;28;20083;-79
2022/10/20 08:33:31;;;;;;;20.85;11.75;;;7.90;99.90;;;;;;5059563;28;20075;-78
2022/10/20 08:36:05;;;;;;;16.40;11.57;;;8.10;99.90;;;;;;5077070;28;20130;-77
2022/10/20 08:38:31;;;;;;;17.58;10.95;;;8.00;99.90;;;;;;5074736;28;20102;-80
2022/10/20 08:40:59;;;;;;;15.50;10.45;;;8.10;99.90;;;;;;5074486;28;20044;-82
2022/10/20 08:43:27;;;;;;;13.10;10.23;;;8.20;99.90;;;;;;5059458;28;20055;-77
2022/10/20 08:45:52;;;;;;;15.77;11.43;;;8.10;99.90;;;;;;5042301;28;20075;-80
2022/10/20 08:48:24;;;;;;;16.65;10.82;;;8.30;99.90;;;;;;5076032;28;20051;-79
2022/10/20 08:50:52;;;;;;;15.20;10.95;;;8.30;99.90;;;;;;5077378;28;20048;-79
2022/10/20 08:53:21;;;;;;;20.83;11.63;;;8.40;99.90;;;;;;5075566;28;20058;-80
2022/10/20 08:55:47;;;;;;;13.70;10.30;;;8.50;99.90;;;;;;5070013;28;20032;-80
2022/10/20 08:58:18;;;;;;;17.05;10.98;;;8.50;99.90;;;;;;5076157;28;20086;-80
2022/10/20 09:00:45;;;;;;;17.38;10.30;;;8.60;99.90;;;;;;5074348;28;20040;-77
2022/10/20 09:03:16;;;;;;;14.18;10.65;;;8.60;99.90;;;;;;5075646;28;20043;-79
2022/10/20 09:05:45;;;;;;;13.68;9.98;;;8.60;99.90;;;;;;5055252;28;20401;-80
2022/10/20 09:08:10;;;;;;;15.95;10.95;;;8.80;99.90;;;;;;5062097;28;20391;-81
2022/10/20 09:10:46;;;;;;;11.98;9.95;;;8.90;99.90;;;;;;5059278;28;20050;-76
2022/10/20 09:13:39;;;;;;;13.63;10.10;;;8.90;99.90;;;;;;5069192;28;20036;-80
2022/10/20 09:16:32;;;;;;;12.70;10.32;;;9.00;99.90;;;;;;5057367;28;20060;-76
2022/10/20 09:19:00;;;;;;;18.27;9.55;;;9.10;99.90;;;;;;5047109;28;20047;-80
2022/10/20 09:21:27;;;;;;;12.40;9.52;;;9.10;99.90;;;;;;5057979;28;20052;-78
2022/10/20 09:23:59;;;;;;;13.05;9.25;;;9.30;99.90;;;;;;5044786;28;20036;-79
2022/10/20 09:26:35;;;;;;;14.38;9.30;;;9.30;99.90;;;;;;5059705;28;20103;-82
2022/10/20 09:29:09;;;;;;;14.88;8.93;;;9.40;99.90;;;;;;5037276;28;20051;-82
2022/10/20 09:31:41;;;;;;;12.38;9.20;;;9.50;99.90;;;;;;5057794;28;20052;-79
2022/10/20 09:34:25;;;;;;;14.35;9.20;;;9.50;99.90;;;;;;5072942;28;20044;-77
2022/10/20 09:36:56;;;;;;;13.05;9.10;;;9.60;99.90;;;;;;5069462;28;20040;-79
2022/10/20 09:39:25;;;;;;;12.85;8.15;;;9.70;99.90;;;;;;5051551;28;20093;-75
2022/10/20 09:42:06;;;;;;;13.00;9.27;;;9.70;99.90;;;;;;5072140;28;20334;-78
2022/10/20 09:45:03;;;;;;;12.07;8.32;;;9.80;99.90;;;;;;5050168;28;20095;-81
2022/10/20 09:47:29;;;;;;;11.43;8.35;;;9.90;99.90;;;;;;5051798;28;20127;-79
2022/10/20 09:50:01;;;;;;;13.40;8.15;;;9.80;99.90;;;;;;5037561;28;20052;-79
2022/10/20 09:52:32;;;;;;;10.73;7.82;;;9.90;99.90;;;;;;5037938;28;20071;-78
2022/10/20 09:55:06;;;;;;;12.18;7.72;;;9.90;99.90;;;;;;5045236;28;20024;-81
2022/10/20 09:57:32;;;;;;;11.65;7.50;;;10.10;99.90;;;;;;5058044;28;20042;-80
2022/10/20 09:59:59;;;;;;;12.07;7.63;;;10.00;99.90;;;;;;5072458;28;20050;-81
2022/10/20 10:02:27;;;;;;;17.80;8.02;;;10.10;99.90;;;;;;5057726;28;20457;-79
2022/10/20 10:05:11;;;;;;;11.55;7.15;;;10.10;99.90;;;;;;5058563;28;20037;-80
2022/10/20 10:07:36;;;;;;;12.48;7.93;;;10.20;99.90;;;;;;5040922;28;20036;-81
2022/10/20 10:10:25;;;;;;;10.48;7.25;;;10.30;99.90;;;;;;5069208;28;20098;-78
2022/10/20 10:12:55;;;;;;;11.02;8.00;;;10.20;99.90;;;;;;4973685;28;20058;-80
2022/10/20 10:15:28;;;;;;;13.05;7.43;;;10.40;99.90;;;;;;4974410;28;20108;-80
2022/10/20 10:17:55;;;;;;;9.68;7.05;;;10.50;99.90;;;;;;4958591;28;20057;-78
2022/10/20 10:20:56;;;;;;;12.32;7.60;;;10.60;99.90;;;;;;4990984;28;20047;-76
2022/10/20 10:23:26;;;;;;;12.85;7.57;;;10.60;99.90;;;;;;4897142;29;20060;-79
2022/10/20 10:25:53;;;;;;;10.05;7.20;;;10.60;99.90;;;;;;4882523;29;20060;-77
2022/10/20 10:28:32;;;;;;;12.30;7.18;;;10.70;99.90;;;;;;4897907;29;20044;-80
2022/10/20 10:31:15;;;;;;;8.10;7.03;;;10.90;99.90;;;;;;4894662;29;20060;-81
2022/10/20 10:33:41;;;;;;;16.67;7.60;;;11.10;99.90;;;;;;4894785;29;20105;-80
2022/10/20 10:36:26;;;;;;;12.10;7.38;;;11.10;99.90;;;;;;4901962;29;20048;-80
2022/10/20 10:38:53;;;;;;;15.05;7.60;;;11.10;99.90;;;;;;4897146;29;20087;-77
2022/10/20 10:41:32;;;;;;;10.43;7.13;;;11.20;99.90;;;;;;4896225;29;20055;-80
2022/10/20 10:44:18;;;;;;;10.55;7.60;;;11.30;99.90;;;;;;4898853;29;20123;-79
2022/10/20 10:47:18;;;;;;;12.95;7.60;;;11.50;99.90;;;;;;4879098;29;20149;-75
2022/10/20 10:50:25;;;;;;;7.82;6.60;;;11.80;99.90;;;;;;4919345;28;20058;-79
2022/10/20 10:53:18;;;;;;;9.55;6.30;;;11.70;99.90;;;;;;4958498;28;20046;-79
2022/10/20 10:56:02;;;;;;;10.82;6.90;;;11.70;99.90;;;;;;4967609;28;20035;-79
2022/10/20 10:58:44;;;;;;;10.63;6.60;;;11.70;99.90;;;;;;4983522;28;20076;-79
2022/10/20 11:01:34;;;;;;;11.02;7.25;;;11.70;99.90;;;;;;5035424;28;20037;-77
2022/10/20 11:04:20;;;;;;;13.40;6.82;;;11.70;99.90;;;;;;5061402;28;20125;-82
2022/10/20 11:07:30;;;;;;;13.20;7.15;;;11.80;99.90;;;;;;5037200;28;20064;-79
2022/10/20 11:10:11;;;;;;;10.77;6.63;;;12.10;99.90;;;;;;5037721;28;20036;-81
2022/10/20 11:13:02;;;;;;;7.47;5.90;;;12.40;99.90;;;;;;5037097;28;20051;-78
2022/10/20 11:15:54;;;;;;;11.82;6.55;;;12.30;99.90;;;;;;5052753;28;20048;-81
2022/10/20 11:18:50;;;;;;;11.45;7.22;;;12.20;99.90;;;;;;4973595;28;20089;-79
2022/10/20 11:21:39;;;;;;;12.15;6.90;;;12.20;99.90;;;;;;4973233;28;20129;-79
2022/10/20 11:24:19;;;;;;;16.40;6.35;;;12.10;99.90;;;;;;4956877;28;20046;-82
2022/10/20 11:26:49;;;;;;;13.05;6.70;;;12.30;99.90;;;;;;4973816;28;20039;-75
2022/10/20 11:29:38;;;;;;;10.45;7.03;;;12.40;99.90;;;;;;4969731;28;21062;-80
2022/10/20 11:32:13;;;;;;;11.70;6.63;;;12.40;99.90;;;;;;4972509;28;20493;-79
2022/10/20 11:34:57;;;;;;;;;;;12.50;99.90;;;;;;4973790;28;20125;-82
2022/10/20 11:37:44;;;;;;;12.10;7.20;;;12.50;99.90;;;;;;4972573;28;19918;-82
2022/10/20 11:40:10;;;;;;;11.95;6.85;;;12.60;99.90;;;;;;4960874;28;20047;-77
2022/10/20 11:42:59;;;;;;;11.23;6.85;;;12.50;99.90;;;;;;4984995;28;20125;-80
2022/10/20 11:45:41;;;;;;;17.90;6.72;;;12.60;99.90;;;;;;4969897;28;20096;-80
2022/10/20 11:48:25;;;;;;;13.82;6.70;;;12.60;99.90;;;;;;4957110;28;20054;-76
2022/10/20 11:51:12;;;;;;;10.05;6.95;;;12.70;99.90;;;;;;4982619;28;20493;-79
2022/10/20 11:53:47;;;;;;;11.63;6.55;;;12.60;99.90;;;;;;4992807;28;20052;-83
2022/10/20 11:56:12;;;;;;;;;;;12.70;99.90;;;;;;5059206;28;20052;-79
2022/10/20 11:59:03;;;;;;;8.45;7.03;;;12.70;99.90;;;;;;5056410;28;20133;-79
2022/10/20 12:01:48;;;;;;;13.88;6.82;;;12.70;99.90;;;;;;5072423;28;20036;-80
2022/10/20 12:04:38;;;;;;;14.77;7.35;;;12.80;99.90;;;;;;5053166;28;20041;-79
2022/10/20 12:07:30;;;;;;;10.90;6.88;;;12.90;99.90;;;;;;5035592;28;20040;-83
2022/10/20 12:10:12;;;;;;;11.18;7.18;;;12.90;99.90;;;;;;5052924;28;20043;-78
2022/10/20 12:12:50;;;;;;;10.52;6.97;;;12.90;99.90;;;;;;5082154;28;20036;-82
2022/10/20 12:15:23;;;;;;;13.68;7.30;;;12.90;99.90;;;;;;5063182;28;20036;-78
2022/10/20 12:17:52;;;;;;;10.23;6.60;;;12.80;99.90;;;;;;5056347;28;20542;-78
2022/10/20 12:20:21;;;;;;;14.35;7.45;;;12.90;99.90;;;;;;5040578;28;20044;-77
2022/10/20 12:22:52;;;;;;;8.63;6.65;;;12.70;99.90;;;;;;5076340;28;20036;-78
2022/10/20 12:25:24;;;;;;;14.57;7.18;;;12.80;99.90;;;;;;5083227;28;20028;-79
2022/10/20 12:28:23;;;;;;;14.48;7.18;;;12.70;99.90;;;;;;5075553;28;20044;-78
2022/10/20 12:30:54;;;;;;;13.93;7.22;;;12.70;99.90;;;;;;5065797;28;20090;-80
2022/10/20 12:33:49;;;;;;;11.07;7.10;;;12.60;99.90;;;;;;5075694;28;20112;-81
2022/10/20 12:36:17;;;;;;;14.63;7.63;;;12.60;99.90;;;;;;5047524;28;20097;-77
2022/10/20 12:38:46;;;;;;;12.75;7.25;;;12.50;99.90;;;;;;5057552;28;20538;-77
2022/10/20 12:41:25;;;;;;;18.60;7.72;;;12.50;99.90;;;;;;5094025;28;20095;-79
2022/10/20 12:43:52;;;;;;;11.45;7.35;;;12.50;99.90;;;;;;5059670;28;20039;-81
2022/10/20 12:46:30;;;;;;;10.43;7.22;;;12.50;99.90;;;;;;5076086;28;20112;-77
2022/10/20 12:49:03;;;;;;;15.32;8.00;;;12.50;99.90;;;;;;5061449;28;20106;-80
2022/10/20 12:51:52;;;;;;;18.35;7.82;;;12.40;99.90;;;;;;5077242;28;20036;-78
2022/10/20 12:54:38;;;;;;;8.82;7.00;;;12.30;99.90;;;;;;5048896;28;20101;-80
2022/10/20 12:57:31;;;;;;;11.80;7.55;;;12.40;99.90;;;;;;5056341;28;20040;-80
2022/10/20 12:59:56;;;;;;;11.43;8.55;;;12.30;99.90;;;;;;5056777;28;20048;-79
2022/10/20 13:02:24;;;;;;;14.20;8.73;;;12.30;99.90;;;;;;5057952;28;20056;-78